createdAt,value
2023-05-19T00:00:05.000Z,79.96
2023-05-19T00:01:09.000Z,80.46
2023-05-19T00:02:13.000Z,80.88
2023-05-19T00:03:16.000Z,82.0
2023-05-19T00:04:20.000Z,82.14
2023-05-19T00:05:24.000Z,82.45
2023-05-19T00:06:28.000Z,82.65
2023-05-19T00:07:31.000Z,81.94
2023-05-19T00:08:35.000Z,82.35
2023-05-19T00:09:39.000Z,82.76
2023-05-19T00:10:43.000Z,82.96
2023-05-19T00:11:47.000Z,83.0
2023-05-19T00:12:50.000Z,83.2
2023-05-19T00:13:54.000Z,83.51
2023-05-19T00:14:58.000Z,83.51
2023-05-19T00:16:02.000Z,82.79
2023-05-19T00:17:07.000Z,82.35
2023-05-19T00:18:10.000Z,82.35
2023-05-19T00:19:14.000Z,81.84
2023-05-19T00:20:18.000Z,82.04
2023-05-19T00:21:22.000Z,82.04
2023-05-19T00:22:25.000Z,82.65
2023-05-19T00:23:29.000Z,81.94
2023-05-19T00:24:33.000Z,81.94
2023-05-19T00:25:37.000Z,82.04
2023-05-19T00:26:40.000Z,82.14
2023-05-19T00:27:44.000Z,82.04
2023-05-19T00:28:48.000Z,81.73
2023-05-19T00:29:52.000Z,81.63
2023-05-19T00:30:56.000Z,81.43
2023-05-19T00:31:59.000Z,81.12
2023-05-19T00:33:03.000Z,80.71
2023-05-19T00:34:07.000Z,81.12
2023-05-19T00:35:11.000Z,82.04
2023-05-19T00:36:15.000Z,81.43
2023-05-19T00:37:18.000Z,81.43
2023-05-19T00:38:22.000Z,81.63
2023-05-19T00:39:26.000Z,80.81
2023-05-19T00:40:30.000Z,80.51
2023-05-19T00:41:39.000Z,79.99
2023-05-19T00:42:42.000Z,80.3
2023-05-19T00:43:46.000Z,80.91
2023-05-19T00:44:50.000Z,80.51
2023-05-19T00:45:54.000Z,80.71
2023-05-19T00:46:57.000Z,81.22
2023-05-19T00:48:01.000Z,80.81
2023-05-19T00:49:05.000Z,81.01
2023-05-19T00:50:09.000Z,80.6
2023-05-19T00:51:12.000Z,80.19
2023-05-19T00:52:16.000Z,81.01
2023-05-19T00:53:20.000Z,80.54
2023-05-19T00:54:24.000Z,80.23
2023-05-19T00:55:28.000Z,80.54
2023-05-19T00:56:31.000Z,80.74
2023-05-19T00:57:35.000Z,80.85
2023-05-19T00:58:39.000Z,81.15
2023-05-19T00:59:43.000Z,80.44
2023-05-19T01:00:47.000Z,80.74
2023-05-19T01:01:51.000Z,80.95
2023-05-19T01:02:54.000Z,80.95
2023-05-19T01:03:58.000Z,80.44
2023-05-19T01:05:02.000Z,80.03
2023-05-19T01:06:06.000Z,80.33
2023-05-19T01:07:09.000Z,79.62
2023-05-19T01:08:13.000Z,79.41
2023-05-19T01:09:17.000Z,79.31
2023-05-19T01:10:21.000Z,79.31
2023-05-19T01:11:24.000Z,78.9
2023-05-19T01:12:28.000Z,78.9
2023-05-19T01:13:32.000Z,78.56
2023-05-19T01:14:36.000Z,78.7
2023-05-19T01:15:40.000Z,78.49
2023-05-19T01:16:43.000Z,78.76
2023-05-19T01:17:47.000Z,78.45
2023-05-19T01:18:51.000Z,78.35
2023-05-19T01:19:55.000Z,78.66
2023-05-19T01:20:59.000Z,78.25
2023-05-19T01:22:02.000Z,77.84
2023-05-19T01:23:06.000Z,78.35
2023-05-19T01:24:10.000Z,78.05
2023-05-19T01:25:14.000Z,78.45
2023-05-19T01:26:17.000Z,78.66
2023-05-19T01:27:21.000Z,78.76
2023-05-19T01:28:25.000Z,78.45
2023-05-19T01:29:29.000Z,78.56
2023-05-19T01:30:33.000Z,79.11
2023-05-19T01:31:36.000Z,78.66
2023-05-19T01:32:40.000Z,78.66
2023-05-19T01:33:44.000Z,78.9
2023-05-19T01:34:48.000Z,78.7
2023-05-19T01:35:52.000Z,78.59
2023-05-19T01:36:56.000Z,78.45
2023-05-19T01:37:59.000Z,78.76
2023-05-19T01:39:03.000Z,79.68
2023-05-19T01:40:07.000Z,79.68
2023-05-19T01:41:11.000Z,79.62
2023-05-19T01:42:14.000Z,79.62
2023-05-19T01:43:18.000Z,80.03
2023-05-19T01:44:22.000Z,80.03
2023-05-19T01:45:26.000Z,80.64
2023-05-19T01:46:29.000Z,80.64
2023-05-19T01:47:33.000Z,81.77
2023-05-19T01:48:37.000Z,81.46
2023-05-19T01:49:41.000Z,81.01
2023-05-19T01:50:45.000Z,81.52
2023-05-19T01:51:49.000Z,81.22
2023-05-19T01:52:52.000Z,81.12
2023-05-19T01:53:56.000Z,81.52
2023-05-19T01:55:00.000Z,81.52
2023-05-19T01:56:04.000Z,81.32
2023-05-19T01:57:07.000Z,81.52
2023-05-19T01:58:11.000Z,81.43
2023-05-19T01:59:15.000Z,81.63
2023-05-19T02:00:19.000Z,81.63
2023-05-19T02:01:22.000Z,81.73
2023-05-19T02:02:26.000Z,82.08
2023-05-19T02:03:30.000Z,82.28
2023-05-19T02:04:34.000Z,82.79
2023-05-19T02:05:38.000Z,83.2
2023-05-19T02:06:41.000Z,83.51
2023-05-19T02:07:45.000Z,83.34
2023-05-19T02:08:49.000Z,83.76
2023-05-19T02:09:53.000Z,83.86
2023-05-19T02:10:57.000Z,83.96
2023-05-19T02:12:00.000Z,83.76
2023-05-19T02:13:04.000Z,83.86
2023-05-19T02:14:08.000Z,83.86
2023-05-19T02:15:12.000Z,84.06
2023-05-19T02:16:15.000Z,83.76
2023-05-19T02:17:19.000Z,84.58
2023-05-19T02:18:23.000Z,84.06
2023-05-19T02:19:27.000Z,83.96
2023-05-19T02:20:30.000Z,84.06
2023-05-19T02:21:34.000Z,83.76
2023-05-19T02:22:38.000Z,82.93
2023-05-19T02:23:42.000Z,83.04
2023-05-19T02:24:46.000Z,82.53
2023-05-19T02:25:50.000Z,82.53
2023-05-19T02:26:53.000Z,82.42
2023-05-19T02:27:57.000Z,82.12
2023-05-19T02:29:01.000Z,81.6
2023-05-19T02:30:05.000Z,82.12
2023-05-19T02:31:09.000Z,82.01
2023-05-19T02:32:12.000Z,81.91
2023-05-19T02:33:16.000Z,82.32
2023-05-19T02:34:20.000Z,82.63
2023-05-19T02:35:24.000Z,82.93
2023-05-19T02:36:27.000Z,82.73
2023-05-19T02:37:31.000Z,82.73
2023-05-19T02:38:35.000Z,82.93
2023-05-19T02:39:39.000Z,83.04
2023-05-19T02:40:43.000Z,83.04
2023-05-19T02:41:46.000Z,83.25
2023-05-19T02:42:50.000Z,82.93
2023-05-19T02:43:54.000Z,83.04
2023-05-19T02:44:58.000Z,83.34
2023-05-19T02:46:01.000Z,83.28
2023-05-19T02:47:05.000Z,83.49
2023-05-19T02:48:09.000Z,83.49
2023-05-19T02:49:13.000Z,83.8
2023-05-19T02:50:16.000Z,83.59
2023-05-19T02:51:20.000Z,83.69
2023-05-19T02:52:24.000Z,83.69
2023-05-19T02:53:28.000Z,83.69
2023-05-19T02:54:32.000Z,83.49
2023-05-19T02:55:35.000Z,83.28
2023-05-19T02:56:39.000Z,83.39
2023-05-19T02:57:43.000Z,82.77
2023-05-19T02:58:47.000Z,83.14
2023-05-19T02:59:51.000Z,83.04
2023-05-19T03:00:54.000Z,82.42
2023-05-19T03:01:58.000Z,82.12
2023-05-19T03:03:02.000Z,82.32
2023-05-19T03:04:06.000Z,80.88
2023-05-19T03:05:10.000Z,81.6
2023-05-19T03:06:14.000Z,81.29
2023-05-19T03:07:17.000Z,81.29
2023-05-19T03:08:21.000Z,80.68
2023-05-19T03:09:25.000Z,80.78
2023-05-19T03:10:29.000Z,80.99
2023-05-19T03:11:32.000Z,81.29
2023-05-19T03:12:36.000Z,80.88
2023-05-19T03:13:40.000Z,80.99
2023-05-19T03:14:44.000Z,81.2
2023-05-19T03:15:48.000Z,81.6
2023-05-19T03:16:51.000Z,81.6
2023-05-19T03:17:55.000Z,82.12
2023-05-19T03:18:59.000Z,82.53
2023-05-19T03:20:03.000Z,82.42
2023-05-19T03:21:06.000Z,82.83
2023-05-19T03:22:10.000Z,82.93
2023-05-19T03:23:14.000Z,82.73
2023-05-19T03:24:18.000Z,82.73
2023-05-19T03:25:22.000Z,82.97
2023-05-19T03:26:25.000Z,82.97
2023-05-19T03:27:29.000Z,82.77
2023-05-19T03:28:33.000Z,82.77
2023-05-19T03:29:37.000Z,83.18
2023-05-19T03:30:41.000Z,83.07
2023-05-19T03:31:44.000Z,82.97
2023-05-19T03:32:48.000Z,82.56
2023-05-19T03:33:52.000Z,82.97
2023-05-19T03:34:56.000Z,83.18
2023-05-19T03:36:00.000Z,82.97
2023-05-19T03:37:03.000Z,82.97
2023-05-19T03:38:07.000Z,82.97
2023-05-19T03:39:11.000Z,83.07
2023-05-19T03:40:15.000Z,83.28
2023-05-19T03:41:19.000Z,82.97
2023-05-19T03:42:22.000Z,81.85
2023-05-19T03:43:27.000Z,82.15
2023-05-19T03:44:31.000Z,81.85
2023-05-19T03:45:35.000Z,81.54
2023-05-19T03:46:39.000Z,81.2
2023-05-19T03:47:42.000Z,81.13
2023-05-19T03:48:46.000Z,80.88
2023-05-19T03:49:50.000Z,80.88
2023-05-19T03:50:54.000Z,80.58
2023-05-19T03:51:57.000Z,80.58
2023-05-19T03:53:01.000Z,80.88
2023-05-19T03:54:05.000Z,80.99
2023-05-19T03:55:09.000Z,81.09
2023-05-19T03:56:13.000Z,80.99
2023-05-19T03:57:16.000Z,81.6
2023-05-19T03:58:20.000Z,82.01
2023-05-19T03:59:24.000Z,82.22
2023-05-19T04:00:28.000Z,82.73
2023-05-19T04:01:32.000Z,83.14
2023-05-19T04:02:35.000Z,83.04
2023-05-19T04:03:39.000Z,83.55
2023-05-19T04:04:43.000Z,83.14
2023-05-19T04:05:47.000Z,83.04
2023-05-19T04:06:52.000Z,83.14
2023-05-19T04:07:55.000Z,82.32
2023-05-19T04:08:59.000Z,82.93
2023-05-19T04:10:03.000Z,82.9
2023-05-19T04:11:07.000Z,82.69
2023-05-19T04:12:10.000Z,82.49
2023-05-19T04:13:14.000Z,82.39
2023-05-19T04:14:18.000Z,82.18
2023-05-19T04:15:22.000Z,82.18
2023-05-19T04:16:26.000Z,82.08
2023-05-19T04:17:29.000Z,81.77
2023-05-19T04:18:33.000Z,81.26
2023-05-19T04:19:37.000Z,81.67
2023-05-19T04:20:41.000Z,81.98
2023-05-19T04:21:44.000Z,82.08
2023-05-19T04:22:49.000Z,81.98
2023-05-19T04:23:52.000Z,80.95
2023-05-19T04:24:56.000Z,81.05
2023-05-19T04:26:00.000Z,81.01
2023-05-19T04:27:04.000Z,81.12
2023-05-19T04:28:07.000Z,80.81
2023-05-19T04:29:11.000Z,81.52
2023-05-19T04:30:15.000Z,81.52
2023-05-19T04:31:19.000Z,80.81
2023-05-19T04:32:23.000Z,80.4
2023-05-19T04:33:26.000Z,80.09
2023-05-19T04:34:30.000Z,79.89
2023-05-19T04:35:34.000Z,79.48
2023-05-19T04:36:38.000Z,79.38
2023-05-19T04:37:42.000Z,79.89
2023-05-19T04:38:45.000Z,79.58
2023-05-19T04:39:49.000Z,79.58
2023-05-19T04:40:53.000Z,79.79
2023-05-19T04:41:57.000Z,79.79
2023-05-19T04:43:00.000Z,79.89
2023-05-19T04:44:04.000Z,80.19
2023-05-19T04:45:08.000Z,79.54
2023-05-19T04:46:12.000Z,79.24
2023-05-19T04:47:16.000Z,79.34
2023-05-19T04:48:19.000Z,79.13
2023-05-19T04:49:23.000Z,79.13
2023-05-19T04:50:27.000Z,79.64
2023-05-19T04:51:31.000Z,79.5
2023-05-19T04:52:34.000Z,79.0
2023-05-19T04:53:38.000Z,78.17
2023-05-19T04:54:42.000Z,78.89
2023-05-19T04:55:46.000Z,79.41
2023-05-19T04:56:50.000Z,79.3
2023-05-19T04:57:54.000Z,78.49
2023-05-19T04:58:57.000Z,78.38
2023-05-19T05:00:01.000Z,78.59
2023-05-19T05:01:05.000Z,78.49
2023-05-19T05:02:09.000Z,78.65
2023-05-19T05:03:12.000Z,78.55
2023-05-19T05:04:16.000Z,77.83
2023-05-19T05:05:20.000Z,78.04
2023-05-19T05:06:24.000Z,77.8
2023-05-19T05:07:28.000Z,77.83
2023-05-19T05:08:31.000Z,77.49
2023-05-19T05:09:35.000Z,77.32
2023-05-19T05:10:39.000Z,78.2
2023-05-19T05:11:43.000Z,76.88
2023-05-19T05:12:46.000Z,76.47
2023-05-19T05:13:50.000Z,76.78
2023-05-19T05:14:54.000Z,76.94
2023-05-19T05:15:58.000Z,77.56
2023-05-19T05:17:02.000Z,76.43
2023-05-19T05:18:05.000Z,76.7
2023-05-19T05:19:09.000Z,76.19
2023-05-19T05:20:13.000Z,75.99
2023-05-19T05:21:17.000Z,76.4
2023-05-19T05:22:20.000Z,75.95
2023-05-19T05:23:24.000Z,75.34
2023-05-19T05:24:28.000Z,75.24
2023-05-19T05:25:32.000Z,74.42
2023-05-19T05:26:35.000Z,74.46
2023-05-19T05:27:39.000Z,75.58
2023-05-19T05:28:43.000Z,75.17
2023-05-19T05:29:47.000Z,74.73
2023-05-19T05:30:50.000Z,74.83
2023-05-19T05:31:54.000Z,75.1
2023-05-19T05:32:58.000Z,73.33
2023-05-19T05:34:07.000Z,73.88
2023-05-19T05:35:11.000Z,74.55
2023-05-19T05:36:15.000Z,73.91
2023-05-19T05:37:19.000Z,72.89
2023-05-19T05:38:22.000Z,73.5
2023-05-19T05:39:26.000Z,73.43
2023-05-19T05:40:30.000Z,71.91
2023-05-19T05:41:34.000Z,72.04
2023-05-19T05:42:38.000Z,71.84
2023-05-19T05:43:41.000Z,73.67
2023-05-19T05:44:45.000Z,73.06
2023-05-19T05:45:49.000Z,72.55
2023-05-19T05:46:53.000Z,73.23
2023-05-19T05:47:56.000Z,73.74
2023-05-19T05:49:00.000Z,72.04
2023-05-19T05:50:04.000Z,74.04
2023-05-19T05:51:08.000Z,74.04
2023-05-19T05:52:12.000Z,73.64
2023-05-19T05:53:15.000Z,72.82
2023-05-19T05:54:19.000Z,73.23
2023-05-19T05:55:23.000Z,73.84
2023-05-19T05:56:27.000Z,73.19
2023-05-19T05:57:30.000Z,72.69
2023-05-19T05:58:34.000Z,71.77
2023-05-19T05:59:38.000Z,72.82
2023-05-19T06:00:47.000Z,74.01
2023-05-19T06:01:51.000Z,74.01
2023-05-19T06:02:54.000Z,72.21
2023-05-19T06:03:58.000Z,74.25
2023-05-19T06:05:07.000Z,72.65
2023-05-19T06:06:11.000Z,73.88
2023-05-19T06:07:20.000Z,74.04
2023-05-19T06:08:23.000Z,73.97
2023-05-19T06:09:27.000Z,73.57
2023-05-19T06:10:31.000Z,74.38
2023-05-19T06:11:35.000Z,73.97
2023-05-19T06:12:38.000Z,74.25
2023-05-19T06:13:42.000Z,74.15
2023-05-19T06:14:46.000Z,73.43
2023-05-19T06:15:50.000Z,73.54
2023-05-19T06:16:54.000Z,74.45
2023-05-19T06:17:58.000Z,74.41
2023-05-19T06:19:01.000Z,74.21
2023-05-19T06:20:05.000Z,74.01
2023-05-19T06:21:09.000Z,74.21
2023-05-19T06:22:13.000Z,75.33
2023-05-19T06:23:16.000Z,74.48
2023-05-19T06:24:20.000Z,74.69
2023-05-19T06:25:24.000Z,72.45
2023-05-19T06:26:28.000Z,72.62
2023-05-19T06:27:32.000Z,73.36
2023-05-19T06:28:35.000Z,72.72
2023-05-19T06:29:39.000Z,71.6
2023-05-19T06:30:43.000Z,71.5
2023-05-19T06:31:47.000Z,70.68
2023-05-19T06:32:51.000Z,70.99
2023-05-19T06:33:54.000Z,71.5
2023-05-19T06:34:58.000Z,70.89
2023-05-19T06:36:02.000Z,71.19
2023-05-19T06:37:06.000Z,70.28
2023-05-19T06:38:09.000Z,69.53
2023-05-19T06:39:13.000Z,68.55
2023-05-19T06:40:17.000Z,70.48
2023-05-19T06:41:26.000Z,71.57
2023-05-19T06:42:29.000Z,69.91
2023-05-19T06:43:33.000Z,68.38
2023-05-19T06:44:37.000Z,69.13
2023-05-19T06:45:41.000Z,70.01
2023-05-19T06:46:44.000Z,69.6
2023-05-19T06:47:48.000Z,69.47
2023-05-19T06:48:52.000Z,69.67
2023-05-19T06:49:56.000Z,67.54
2023-05-19T06:50:59.000Z,68.45
2023-05-19T06:52:03.000Z,68.28
2023-05-19T06:53:07.000Z,67.57
2023-05-19T06:54:11.000Z,67.97
2023-05-19T06:55:15.000Z,67.97
2023-05-19T06:56:19.000Z,67.97
2023-05-19T06:57:23.000Z,68.35
2023-05-19T06:58:26.000Z,68.05
2023-05-19T06:59:30.000Z,68.25
2023-05-19T07:00:34.000Z,68.66
2023-05-19T07:01:38.000Z,69.03
2023-05-19T07:02:42.000Z,68.62
2023-05-19T07:03:45.000Z,68.01
2023-05-19T07:04:49.000Z,68.83
2023-05-19T07:05:53.000Z,68.29
2023-05-19T07:06:57.000Z,66.63
2023-05-19T07:08:00.000Z,67.24
2023-05-19T07:09:04.000Z,68.99
2023-05-19T07:10:08.000Z,70.38
2023-05-19T07:11:12.000Z,69.43
2023-05-19T07:12:16.000Z,67.91
2023-05-19T07:13:19.000Z,67.64
2023-05-19T07:14:23.000Z,67.13
2023-05-19T07:15:27.000Z,68.76
2023-05-19T07:16:31.000Z,69.47
2023-05-19T07:17:35.000Z,67.94
2023-05-19T07:18:38.000Z,68.49
2023-05-19T07:19:42.000Z,68.21
2023-05-19T07:20:46.000Z,69.64
2023-05-19T07:21:50.000Z,68.99
2023-05-19T07:22:53.000Z,68.41
2023-05-19T07:23:57.000Z,68.92
2023-05-19T07:25:01.000Z,69.3
2023-05-19T07:26:05.000Z,70.79
2023-05-19T07:27:08.000Z,69.26
2023-05-19T07:28:12.000Z,68.45
2023-05-19T07:29:16.000Z,69.67
2023-05-19T07:30:20.000Z,67.61
2023-05-19T07:31:24.000Z,66.72
2023-05-19T07:32:27.000Z,69.06
2023-05-19T07:33:31.000Z,70.38
2023-05-19T07:34:35.000Z,69.34
2023-05-19T07:35:39.000Z,68.83
2023-05-19T07:36:43.000Z,67.74
2023-05-19T07:37:46.000Z,69.5
2023-05-19T07:38:50.000Z,70.01
2023-05-19T07:39:54.000Z,69.4
2023-05-19T07:40:58.000Z,69.23
2023-05-19T07:42:01.000Z,71.47
2023-05-19T07:43:05.000Z,69.81
2023-05-19T07:44:09.000Z,69.47
2023-05-19T07:45:13.000Z,69.17
2023-05-19T07:46:16.000Z,68.96
2023-05-19T07:47:20.000Z,69.87
2023-05-19T07:48:24.000Z,70.35
2023-05-19T07:49:28.000Z,67.81
2023-05-19T07:50:32.000Z,69.43
2023-05-19T07:51:36.000Z,68.9
2023-05-19T07:52:39.000Z,69.0
2023-05-19T07:53:43.000Z,68.96
2023-05-19T07:54:47.000Z,68.19
2023-05-19T07:55:51.000Z,70.11
2023-05-19T07:56:55.000Z,69.37
2023-05-19T07:57:58.000Z,69.27
2023-05-19T07:59:02.000Z,68.66
2023-05-19T08:00:06.000Z,70.15
2023-05-19T08:01:10.000Z,69.54
2023-05-19T08:02:13.000Z,67.72
2023-05-19T08:03:17.000Z,67.72
2023-05-19T08:04:21.000Z,68.4
2023-05-19T08:05:25.000Z,67.89
2023-05-19T08:06:29.000Z,67.99
2023-05-19T08:07:32.000Z,66.8
2023-05-19T08:08:36.000Z,66.19
2023-05-19T08:09:40.000Z,68.32
2023-05-19T08:10:44.000Z,68.83
2023-05-19T08:11:48.000Z,69.1
2023-05-19T08:12:51.000Z,67.08
2023-05-19T08:13:55.000Z,66.67
2023-05-19T08:14:59.000Z,66.67
2023-05-19T08:16:03.000Z,68.46
2023-05-19T08:17:07.000Z,68.06
2023-05-19T08:18:10.000Z,65.19
2023-05-19T08:19:14.000Z,64.99
2023-05-19T08:20:18.000Z,64.76
2023-05-19T08:21:22.000Z,62.93
2023-05-19T08:22:25.000Z,62.69
2023-05-19T08:23:29.000Z,66.44
2023-05-19T08:24:33.000Z,66.03
2023-05-19T08:25:37.000Z,66.77
2023-05-19T08:26:41.000Z,66.64
2023-05-19T08:27:44.000Z,67.42
2023-05-19T08:28:48.000Z,67.79
2023-05-19T08:29:52.000Z,66.67
2023-05-19T08:30:56.000Z,63.75
2023-05-19T08:32:00.000Z,64.18
2023-05-19T08:33:03.000Z,65.02
2023-05-19T08:34:07.000Z,66.0
2023-05-19T08:35:11.000Z,66.3
2023-05-19T08:36:15.000Z,64.79
2023-05-19T08:37:19.000Z,64.96
2023-05-19T08:38:22.000Z,65.97
2023-05-19T08:39:26.000Z,65.16
2023-05-19T08:40:30.000Z,66.1
2023-05-19T08:41:34.000Z,66.71
2023-05-19T08:42:37.000Z,65.5
2023-05-19T08:43:41.000Z,64.92
2023-05-19T08:44:45.000Z,65.02
2023-05-19T08:45:49.000Z,65.15
2023-05-19T08:46:53.000Z,65.25
2023-05-19T08:47:57.000Z,65.53
2023-05-19T08:49:00.000Z,65.02
2023-05-19T08:50:04.000Z,65.83
2023-05-19T08:51:08.000Z,66.2
2023-05-19T08:52:12.000Z,63.67
2023-05-19T08:53:15.000Z,63.67
2023-05-19T08:54:19.000Z,65.87
2023-05-19T08:55:23.000Z,63.17
2023-05-19T08:56:27.000Z,64.86
2023-05-19T08:57:30.000Z,64.22
2023-05-19T08:58:34.000Z,63.84
2023-05-19T08:59:38.000Z,64.83
2023-05-19T09:00:42.000Z,63.89
2023-05-19T09:01:46.000Z,62.07
2023-05-19T09:02:50.000Z,64.7
2023-05-19T09:03:53.000Z,62.27
2023-05-19T09:04:57.000Z,60.88
2023-05-19T09:06:01.000Z,61.29
2023-05-19T09:07:05.000Z,62.1
2023-05-19T09:08:08.000Z,62.27
2023-05-19T09:09:12.000Z,62.16
2023-05-19T09:10:16.000Z,62.41
2023-05-19T09:11:20.000Z,61.57
2023-05-19T09:12:23.000Z,60.91
2023-05-19T09:13:27.000Z,60.57
2023-05-19T09:14:31.000Z,61.68
2023-05-19T09:15:35.000Z,59.48
2023-05-19T09:16:39.000Z,62.31
2023-05-19T09:17:42.000Z,61.71
2023-05-19T09:18:46.000Z,60.66
2023-05-19T09:19:50.000Z,62.15
2023-05-19T09:20:54.000Z,61.82
2023-05-19T09:21:58.000Z,61.18
2023-05-19T09:23:01.000Z,59.7
2023-05-19T09:24:05.000Z,62.02
2023-05-19T09:25:09.000Z,61.36
2023-05-19T09:26:13.000Z,59.4
2023-05-19T09:27:17.000Z,59.89
2023-05-19T09:28:20.000Z,63.73
2023-05-19T09:29:24.000Z,61.85
2023-05-19T09:30:28.000Z,61.92
2023-05-19T09:31:32.000Z,62.32
2023-05-19T09:32:35.000Z,61.07
2023-05-19T09:33:39.000Z,62.88
2023-05-19T09:34:43.000Z,61.55
2023-05-19T09:35:47.000Z,65.01
2023-05-19T09:36:51.000Z,59.37
2023-05-19T09:37:55.000Z,60.81
2023-05-19T09:38:58.000Z,60.81
2023-05-19T09:40:02.000Z,60.94
2023-05-19T09:41:06.000Z,61.0
2023-05-19T09:42:10.000Z,62.68
2023-05-19T09:43:13.000Z,62.96
2023-05-19T09:44:17.000Z,62.22
2023-05-19T09:45:21.000Z,61.32
2023-05-19T09:46:25.000Z,60.35
2023-05-19T09:47:29.000Z,60.32
2023-05-19T09:48:32.000Z,59.92
2023-05-19T09:49:36.000Z,58.36
2023-05-19T09:50:40.000Z,59.27
2023-05-19T09:51:44.000Z,60.38
2023-05-19T09:52:48.000Z,62.57
2023-05-19T09:53:51.000Z,60.05
2023-05-19T09:54:55.000Z,61.1
2023-05-19T09:55:59.000Z,58.86
2023-05-19T09:57:03.000Z,60.69
2023-05-19T09:58:07.000Z,59.52
2023-05-19T09:59:11.000Z,62.64
2023-05-19T10:00:14.000Z,60.6
2023-05-19T10:01:18.000Z,59.46
2023-05-19T10:02:22.000Z,59.64
2023-05-19T10:03:26.000Z,61.66
2023-05-19T10:04:30.000Z,60.08
2023-05-19T10:05:33.000Z,62.32
2023-05-19T10:06:37.000Z,60.91
2023-05-19T10:07:41.000Z,63.13
2023-05-19T10:08:45.000Z,60.48
2023-05-19T10:09:48.000Z,60.81
2023-05-19T10:10:52.000Z,60.58
2023-05-19T10:12:01.000Z,61.63
2023-05-19T10:13:05.000Z,59.55
2023-05-19T10:14:09.000Z,60.75
2023-05-19T10:15:12.000Z,62.3
2023-05-19T10:16:16.000Z,59.6
2023-05-19T10:17:20.000Z,58.73
2023-05-19T10:18:24.000Z,57.12
2023-05-19T10:19:27.000Z,56.77
2023-05-19T10:20:31.000Z,58.78
2023-05-19T10:21:35.000Z,58.41
2023-05-19T10:22:39.000Z,60.72
2023-05-19T10:23:43.000Z,58.61
2023-05-19T10:24:47.000Z,59.55
2023-05-19T10:25:50.000Z,58.81
2023-05-19T10:26:54.000Z,60.55
2023-05-19T10:27:58.000Z,60.35
2023-05-19T10:29:02.000Z,59.31
2023-05-19T10:30:06.000Z,59.28
2023-05-19T10:31:09.000Z,59.89
2023-05-19T10:32:13.000Z,58.86
2023-05-19T10:33:17.000Z,59.36
2023-05-19T10:34:21.000Z,59.94
2023-05-19T10:35:24.000Z,58.93
2023-05-19T10:36:28.000Z,58.42
2023-05-19T10:37:32.000Z,57.22
2023-05-19T10:38:36.000Z,58.86
2023-05-19T10:39:40.000Z,57.72
2023-05-19T10:40:43.000Z,58.5
2023-05-19T10:41:47.000Z,55.31
2023-05-19T10:42:51.000Z,54.13
2023-05-19T10:43:55.000Z,53.65
2023-05-19T10:44:59.000Z,55.83
2023-05-19T10:46:02.000Z,56.51
2023-05-19T10:47:06.000Z,55.99
2023-05-19T10:48:10.000Z,52.55
2023-05-19T10:49:14.000Z,51.86
2023-05-19T10:50:18.000Z,54.45
2023-05-19T10:51:21.000Z,54.97
2023-05-19T10:52:25.000Z,53.14
2023-05-19T10:53:29.000Z,50.48
2023-05-19T10:54:34.000Z,51.92
2023-05-19T10:55:39.000Z,53.92
2023-05-19T10:56:42.000Z,53.09
2023-05-19T10:57:46.000Z,53.77
2023-05-19T10:58:50.000Z,52.77
2023-05-19T10:59:54.000Z,55.78
2023-05-19T11:00:57.000Z,54.72
2023-05-19T11:02:01.000Z,53.39
2023-05-19T11:03:05.000Z,50.76
2023-05-19T11:04:09.000Z,52.77
2023-05-19T11:05:13.000Z,51.19
2023-05-19T11:06:17.000Z,50.42
2023-05-19T11:07:21.000Z,51.46
2023-05-19T11:08:24.000Z,51.72
2023-05-19T11:09:28.000Z,49.79
2023-05-19T11:10:32.000Z,48.44
2023-05-19T11:11:36.000Z,50.89
2023-05-19T11:12:39.000Z,51.67
2023-05-19T11:13:43.000Z,49.91
2023-05-19T11:14:47.000Z,51.07
2023-05-19T11:15:51.000Z,47.97
2023-05-19T11:16:55.000Z,50.67
2023-05-19T11:17:58.000Z,49.2
2023-05-19T11:19:02.000Z,46.65
2023-05-19T11:20:06.000Z,46.37
2023-05-19T11:21:10.000Z,47.65
2023-05-19T11:22:14.000Z,48.17
2023-05-19T11:23:18.000Z,47.56
2023-05-19T11:24:21.000Z,48.11
2023-05-19T11:25:25.000Z,50.7
2023-05-19T11:26:29.000Z,49.25
2023-05-19T11:27:33.000Z,49.22
2023-05-19T11:28:37.000Z,49.27
2023-05-19T11:29:41.000Z,48.85
2023-05-19T11:30:45.000Z,48.25
2023-05-19T11:31:48.000Z,49.69
2023-05-19T11:32:52.000Z,49.49
2023-05-19T11:33:56.000Z,48.74
2023-05-19T11:35:00.000Z,48.34
2023-05-19T11:36:03.000Z,47.16
2023-05-19T11:37:07.000Z,48.76
2023-05-19T11:38:11.000Z,49.11
2023-05-19T11:39:15.000Z,48.72
2023-05-19T11:40:19.000Z,50.2
2023-05-19T11:41:23.000Z,51.32
2023-05-19T11:42:26.000Z,47.14
2023-05-19T11:43:30.000Z,47.46
2023-05-19T11:44:34.000Z,48.99
2023-05-19T11:45:38.000Z,49.91
2023-05-19T11:46:41.000Z,48.33
2023-05-19T11:47:45.000Z,50.23
2023-05-19T11:48:49.000Z,52.14
2023-05-19T11:49:53.000Z,54.08
2023-05-19T11:50:57.000Z,52.17
2023-05-19T11:52:00.000Z,50.84
2023-05-19T11:53:04.000Z,50.46
2023-05-19T11:54:13.000Z,51.56
2023-05-19T11:55:17.000Z,53.25
2023-05-19T11:56:21.000Z,51.18
2023-05-19T11:57:24.000Z,52.89
2023-05-19T11:58:28.000Z,53.5
2023-05-19T11:59:32.000Z,52.8
2023-05-19T12:00:36.000Z,53.17
2023-05-19T12:01:39.000Z,53.4
2023-05-19T12:02:43.000Z,55.05
2023-05-19T12:03:47.000Z,53.8
2023-05-19T12:04:51.000Z,54.1
2023-05-19T12:05:55.000Z,54.38
2023-05-19T12:06:58.000Z,53.07
2023-05-19T12:08:02.000Z,53.14
2023-05-19T12:09:06.000Z,51.31
2023-05-19T12:10:10.000Z,49.68
2023-05-19T12:11:14.000Z,50.18
2023-05-19T12:12:17.000Z,53.45
2023-05-19T12:13:21.000Z,49.61
2023-05-19T12:14:25.000Z,51.54
2023-05-19T12:15:29.000Z,51.04
2023-05-19T12:16:32.000Z,51.24
2023-05-19T12:17:36.000Z,49.99
2023-05-19T12:18:40.000Z,53.07
2023-05-19T12:19:44.000Z,51.14
2023-05-19T12:20:48.000Z,49.57
2023-05-19T12:21:51.000Z,51.37
2023-05-19T12:22:55.000Z,50.34
2023-05-19T12:23:59.000Z,48.69
2023-05-19T12:25:03.000Z,52.19
2023-05-19T12:26:07.000Z,50.76
2023-05-19T12:27:10.000Z,51.37
2023-05-19T12:28:14.000Z,52.24
2023-05-19T12:29:18.000Z,53.72
2023-05-19T12:30:22.000Z,52.87
2023-05-19T12:31:26.000Z,52.92
2023-05-19T12:32:29.000Z,49.82
2023-05-19T12:33:33.000Z,50.72
2023-05-19T12:34:37.000Z,52.19
2023-05-19T12:35:41.000Z,51.82
2023-05-19T12:36:44.000Z,51.37
2023-05-19T12:37:48.000Z,50.49
2023-05-19T12:38:52.000Z,53.12
2023-05-19T12:39:56.000Z,52.92
2023-05-19T12:41:00.000Z,54.15
2023-05-19T12:42:04.000Z,53.64
2023-05-19T12:43:07.000Z,53.05
2023-05-19T12:44:11.000Z,52.97
2023-05-19T12:45:15.000Z,51.26
2023-05-19T12:46:19.000Z,51.89
2023-05-19T12:47:22.000Z,54.3
2023-05-19T12:48:26.000Z,52.69
2023-05-19T12:49:30.000Z,51.29
2023-05-19T12:50:34.000Z,52.97
2023-05-19T12:51:37.000Z,52.57
2023-05-19T12:52:41.000Z,52.59
2023-05-19T12:53:45.000Z,54.33
2023-05-19T12:54:49.000Z,54.6
2023-05-19T12:55:52.000Z,54.33
2023-05-19T12:56:56.000Z,54.96
2023-05-19T12:58:00.000Z,55.05
2023-05-19T12:59:04.000Z,53.72
2023-05-19T13:00:07.000Z,52.75
2023-05-19T13:01:11.000Z,51.39
2023-05-19T13:02:15.000Z,52.37
2023-05-19T13:03:19.000Z,53.55
2023-05-19T13:04:23.000Z,51.44
2023-05-19T13:05:26.000Z,52.97
2023-05-19T13:06:30.000Z,51.39
2023-05-19T13:07:34.000Z,51.64
2023-05-19T13:08:38.000Z,52.64
2023-05-19T13:09:42.000Z,53.92
2023-05-19T13:10:45.000Z,51.72
2023-05-19T13:11:49.000Z,52.01
2023-05-19T13:12:53.000Z,53.39
2023-05-19T13:13:56.000Z,52.84
2023-05-19T13:15:00.000Z,52.02
2023-05-19T13:16:04.000Z,52.97
2023-05-19T13:17:08.000Z,51.62
2023-05-19T13:18:12.000Z,54.2
2023-05-19T13:19:16.000Z,54.15
2023-05-19T13:20:19.000Z,55.08
2023-05-19T13:21:23.000Z,55.83
2023-05-19T13:22:27.000Z,56.71
2023-05-19T13:23:31.000Z,55.48
2023-05-19T13:24:35.000Z,55.35
2023-05-19T13:25:38.000Z,53.2
2023-05-19T13:26:42.000Z,54.68
2023-05-19T13:27:46.000Z,53.39
2023-05-19T13:28:50.000Z,55.76
2023-05-19T13:29:54.000Z,54.2
2023-05-19T13:30:57.000Z,55.88
2023-05-19T13:32:01.000Z,56.81
2023-05-19T13:33:05.000Z,55.0
2023-05-19T13:34:09.000Z,54.5
2023-05-19T13:35:12.000Z,54.25
2023-05-19T13:36:16.000Z,55.88
2023-05-19T13:37:20.000Z,56.82
2023-05-19T13:38:24.000Z,57.57
2023-05-19T13:39:28.000Z,57.88
2023-05-19T13:40:32.000Z,58.02
2023-05-19T13:41:36.000Z,57.26
2023-05-19T13:42:39.000Z,56.26
2023-05-19T13:43:43.000Z,57.91
2023-05-19T13:44:47.000Z,57.34